Time;durP1;ratioP1;P1;durP2;ratioP2;P2;SDS_P1;SDS_P2;PMS_P1;PMS_P2;Temp;Humidity;BMP_temperature;BMP_pressure;BME280_temperature;BME280_humidity;BME280_pressure;Samples;Min_cycle;Max_cycle;Signal;HPM_P1;HPM_P2
2023/03/12 00:01:43;;;;;;;2.67;1.97;;;0.20;99.90;;;;;;5178778;28;20476;-48
2023/03/12 00:04:14;;;;;;;10.37;1.73;;;0.30;99.90;;;;;;5181228;28;20647;-46
2023/03/12 00:06:45;;;;;;;3.63;1.60;;;0.20;99.90;;;;;;5177590;28;20497;-46
2023/03/12 00:09:15;;;;;;;4.10;1.93;;;0.30;99.90;;;;;;5177710;28;20656;-48
2023/03/12 00:11:47;;;;;;;4.33;1.47;;;0.20;99.90;;;;;;5180852;28;20217;-46
2023/03/12 00:14:17;;;;;;;12.63;2.20;;;0.30;99.90;;;;;;5180792;28;20551;-45
2023/03/12 00:16:48;;;;;;;3.00;2.07;;;0.20;99.90;;;;;;5181555;28;20442;-48
2023/03/12 00:19:19;;;;;;;3.80;2.37;;;0.30;99.90;;;;;;5183347;28;20189;-47
2023/03/12 00:21:49;;;;;;;9.43;2.40;;;0.30;99.90;;;;;;5183171;28;20297;-50
2023/03/12 00:24:20;;;;;;;3.80;2.37;;;0.20;99.90;;;;;;5184828;28;20542;-46
2023/03/12 00:26:50;;;;;;;2.30;1.73;;;0.20;99.90;;;;;;5178593;28;20187;-47
2023/03/12 00:29:21;;;;;;;2.67;1.47;;;0.20;99.90;;;;;;5180041;28;20207;-47
2023/03/12 00:31:52;;;;;;;4.73;1.90;;;0.20;99.90;;;;;;5178187;28;20214;-46
2023/03/12 00:34:22;;;;;;;2.27;1.97;;;0.20;99.90;;;;;;5178312;28;20178;-50
2023/03/12 00:36:53;;;;;;;1.97;1.87;;;0.10;99.90;;;;;;5181834;28;20657;-49
2023/03/12 00:39:24;;;;;;;2.10;1.90;;;0.20;99.90;;;;;;5183602;28;20206;-51
2023/03/12 00:41:54;;;;;;;9.63;1.90;;;0.20;99.90;;;;;;5179189;28;20218;-46
2023/03/12 00:44:25;;;;;;;2.53;1.73;;;0.20;99.90;;;;;;5174445;28;20547;-47
2023/03/12 00:46:55;;;;;;;6.77;1.70;;;0.30;99.90;;;;;;5178327;28;20575;-46
2023/03/12 00:49:26;;;;;;;6.20;2.00;;;0.30;99.90;;;;;;5176348;28;20236;-47
2023/03/12 00:51:57;;;;;;;7.93;2.00;;;0.20;99.90;;;;;;5177956;28;20200;-47
2023/03/12 00:54:27;;;;;;;7.87;1.67;;;0.30;99.90;;;;;;5173740;28;20182;-47
2023/03/12 00:56:58;;;;;;;2.83;2.00;;;0.30;99.90;;;;;;5179555;28;20188;-46
2023/03/12 00:59:28;;;;;;;3.90;1.73;;;0.50;99.90;;;;;;5180184;28;20563;-46
2023/03/12 01:01:59;;;;;;;2.40;2.03;;;0.70;99.90;;;;;;5175096;28;20291;-47
2023/03/12 01:04:30;;;;;;;1.60;1.50;;;0.80;99.90;;;;;;5174639;28;20672;-49
2023/03/12 01:07:00;;;;;;;2.10;1.63;;;1.00;99.90;;;;;;5182102;28;20191;-46
2023/03/12 01:09:31;;;;;;;6.60;1.37;;;1.10;99.90;;;;;;5191223;28;20715;-46
2023/03/12 01:12:01;;;;;;;5.10;1.43;;;1.20;99.90;;;;;;5186853;28;20258;-46
2023/03/12 01:14:32;;;;;;;3.83;2.07;;;1.40;99.90;;;;;;5183685;28;20184;-51
2023/03/12 01:17:03;;;;;;;3.40;1.77;;;1.30;99.90;;;;;;5184769;28;20184;-46
2023/03/12 01:19:34;;;;;;;3.33;2.57;;;1.30;99.90;;;;;;5186331;28;20193;-46
2023/03/12 01:22:04;;;;;;;5.30;1.70;;;1.20;99.90;;;;;;5186290;28;20203;-47
2023/03/12 01:24:35;;;;;;;3.07;1.83;;;1.10;99.90;;;;;;5189139;28;20664;-48
2023/03/12 01:27:06;;;;;;;6.03;2.10;;;1.10;99.90;;;;;;5188006;28;20180;-46
2023/03/12 01:29:36;;;;;;;5.60;1.77;;;0.90;99.90;;;;;;5184840;28;20201;-49
2023/03/12 01:32:07;;;;;;;4.50;1.20;;;0.80;99.90;;;;;;5183678;28;20173;-46
2023/03/12 01:34:37;;;;;;;8.93;2.60;;;0.90;99.90;;;;;;5185362;28;20184;-46
2023/03/12 01:37:08;;;;;;;6.30;2.17;;;0.90;99.90;;;;;;5180869;28;20213;-47
2023/03/12 01:39:39;;;;;;;2.23;1.93;;;0.90;99.90;;;;;;5183286;28;20187;-47
2023/03/12 01:42:09;;;;;;;3.93;1.77;;;1.10;99.90;;;;;;5183079;28;20196;-46
2023/03/12 01:44:52;;;;;;;3.43;1.47;;;1.10;99.90;;;;;;5185000;28;20185;-46
2023/03/12 01:47:23;;;;;;;1.60;1.53;;;1.20;99.90;;;;;;5181777;28;20219;-49
2023/03/12 01:49:54;;;;;;;1.60;1.50;;;1.30;99.90;;;;;;5183139;28;20464;-46
2023/03/12 01:52:32;;;;;;;6.03;2.40;;;1.30;99.90;;;;;;5177693;28;20443;-47
2023/03/12 01:55:09;;;;;;;3.43;1.77;;;1.30;99.90;;;;;;5177226;28;20439;-47
2023/03/12 01:57:47;;;;;;;2.87;1.57;;;1.30;99.90;;;;;;5178865;28;20494;-46
2023/03/12 02:00:24;;;;;;;1.60;1.50;;;1.40;99.90;;;;;;5179563;28;20555;-51
2023/03/12 02:02:58;;;;;;;8.33;2.67;;;1.30;99.90;;;;;;5179461;28;20447;-47
2023/03/12 02:05:34;;;;;;;2.20;2.10;;;1.40;99.90;;;;;;5178227;28;20447;-45
2023/03/12 02:08:05;;;;;;;3.80;2.00;;;1.40;99.90;;;;;;5180769;28;20435;-46
2023/03/12 02:10:36;;;;;;;2.87;1.80;;;1.40;99.90;;;;;;5174447;28;20478;-47
2023/03/12 02:13:07;;;;;;;1.77;1.67;;;1.40;99.90;;;;;;5183689;28;20444;-46
2023/03/12 02:15:38;;;;;;;4.10;1.83;;;1.40;99.90;;;;;;5180455;28;20196;-46
2023/03/12 02:18:13;;;;;;;4.67;2.70;;;1.30;99.90;;;;;;5177653;28;20181;-53
2023/03/12 02:21:14;;;;;;;3.07;2.17;;;1.40;99.90;;;;;;5178861;28;20520;-49
2023/03/12 02:24:12;;;;;;;1.93;1.30;;;1.40;99.90;;;;;;5180889;28;20629;-48
2023/03/12 02:26:42;;;;;;;1.83;1.73;;;1.40;99.90;;;;;;5182954;28;20958;-47
2023/03/12 02:29:14;;;;;;;3.40;1.80;;;1.40;99.90;;;;;;5185382;28;20521;-47
2023/03/12 02:31:51;;;;;;;2.60;1.20;;;1.30;99.90;;;;;;5179054;28;20291;-46
2023/03/12 02:34:22;;;;;;;3.17;1.90;;;1.20;99.90;;;;;;5177214;28;20435;-46
2023/03/12 02:36:52;;;;;;;1.60;1.50;;;1.10;99.90;;;;;;5180150;28;20443;-49
2023/03/12 02:39:23;;;;;;;4.50;2.23;;;1.00;99.90;;;;;;5180029;28;20644;-54
2023/03/12 02:41:57;;;;;;;3.53;1.70;;;0.70;99.90;;;;;;5177983;28;20706;-47
2023/03/12 02:44:33;;;;;;;1.77;1.63;;;0.60;99.90;;;;;;5182546;28;20638;-48
2023/03/12 02:47:04;;;;;;;3.33;1.83;;;0.50;99.90;;;;;;5177587;28;21081;-51
2023/03/12 02:49:34;;;;;;;3.20;1.93;;;0.50;99.90;;;;;;5178899;28;20503;-48
2023/03/12 02:52:05;;;;;;;16.37;2.40;;;0.30;99.90;;;;;;5182280;28;20929;-49
2023/03/12 02:54:36;;;;;;;6.90;2.10;;;0.30;99.90;;;;;;5183211;28;20211;-47
2023/03/12 02:57:06;;;;;;;2.50;2.30;;;0.20;99.90;;;;;;5182400;28;20184;-47
2023/03/12 02:59:37;;;;;;;9.40;1.90;;;0.10;99.90;;;;;;5183997;28;20198;-48
2023/03/12 03:02:08;;;;;;;2.67;1.80;;;0.10;99.90;;;;;;5180468;28;20192;-48
2023/03/12 03:04:39;;;;;;;7.00;2.00;;;0.10;99.90;;;;;;5176774;28;20219;-50
2023/03/12 03:07:09;;;;;;;3.23;2.30;;;0.00;99.90;;;;;;5181513;28;20463;-53
2023/03/12 03:09:40;;;;;;;6.43;2.63;;;0.00;99.90;;;;;;5181422;28;20562;-46
2023/03/12 03:12:11;;;;;;;2.53;2.03;;;-0.10;99.90;;;;;;5183527;28;20183;-47
2023/03/12 03:14:41;;;;;;;2.97;2.10;;;-0.10;99.90;;;;;;5183212;28;20182;-51
2023/03/12 03:17:12;;;;;;;1.97;1.83;;;-0.10;99.90;;;;;;5182630;28;22969;-47
2023/03/12 03:19:42;;;;;;;7.47;2.00;;;-0.10;99.90;;;;;;5186651;28;20221;-47
2023/03/12 03:22:13;;;;;;;5.40;1.80;;;-0.20;99.90;;;;;;5180893;28;20235;-49
2023/03/12 03:24:44;;;;;;;4.27;1.80;;;-0.10;99.90;;;;;;5176698;28;20263;-47
2023/03/12 03:27:15;;;;;;;2.67;1.93;;;-0.20;99.90;;;;;;5180382;28;20655;-48
2023/03/12 03:29:46;;;;;;;5.30;2.20;;;-0.30;99.90;;;;;;5184923;28;20550;-47
2023/03/12 03:32:16;;;;;;;3.47;1.80;;;-0.20;99.90;;;;;;5174207;28;20181;-47
2023/03/12 03:34:47;;;;;;;2.10;2.00;;;-0.20;99.90;;;;;;5184676;28;20231;-46
2023/03/12 03:37:17;;;;;;;4.57;1.90;;;-0.20;99.90;;;;;;5182023;28;20598;-46
2023/03/12 03:39:48;;;;;;;5.20;1.60;;;-0.30;99.90;;;;;;5177164;28;20198;-46
2023/03/12 03:42:19;;;;;;;8.67;1.97;;;-0.30;99.90;;;;;;5200506;23;20608;-48
2023/03/12 03:44:50;;;;;;;4.67;2.30;;;-0.30;99.90;;;;;;5186525;28;20173;-48
2023/03/12 03:47:21;;;;;;;3.53;1.67;;;-0.40;99.90;;;;;;5180743;28;20449;-47
2023/03/12 03:49:52;;;;;;;2.10;1.77;;;-0.40;99.90;;;;;;5183761;28;20293;-49
2023/03/12 03:52:23;;;;;;;3.80;2.37;;;-0.30;99.90;;;;;;5162871;28;20601;-48
2023/03/12 03:54:55;;;;;;;10.60;1.90;;;-0.40;99.90;;;;;;5162350;28;20181;-48
2023/03/12 03:57:27;;;;;;;12.03;2.40;;;-0.40;99.90;;;;;;5162196;28;20468;-49
2023/03/12 03:59:59;;;;;;;3.90;1.93;;;-0.40;99.90;;;;;;5163879;28;20450;-49
2023/03/12 04:02:30;;;;;;;7.60;2.10;;;-0.40;99.90;;;;;;5157977;28;20830;-49
2023/03/12 04:05:01;;;;;;;2.33;2.23;;;-0.40;99.90;;;;;;5163039;28;20579;-49
2023/03/12 04:07:32;;;;;;;14.43;1.97;;;-0.60;99.90;;;;;;5161686;28;20509;-49
2023/03/12 04:10:04;;;;;;;4.20;1.80;;;-0.50;99.90;;;;;;5161249;28;20887;-48
2023/03/12 04:12:35;;;;;;;2.03;1.80;;;-0.60;99.90;;;;;;5160327;28;21998;-47
2023/03/12 04:15:06;;;;;;;2.00;1.60;;;-0.50;99.90;;;;;;5162404;28;20462;-48
2023/03/12 04:17:37;;;;;;;2.50;2.10;;;-0.50;99.90;;;;;;5160623;28;20190;-48
2023/03/12 04:20:10;;;;;;;2.53;2.00;;;-0.60;99.90;;;;;;5161967;28;20456;-49
2023/03/12 04:22:41;;;;;;;2.20;2.10;;;-0.60;99.90;;;;;;5165531;28;20251;-48
2023/03/12 04:25:11;;;;;;;5.03;2.20;;;-0.70;99.90;;;;;;5166343;28;20436;-49
2023/03/12 04:27:42;;;;;;;5.57;2.90;;;-0.70;99.90;;;;;;5160025;28;20789;-48
2023/03/12 04:30:13;;;;;;;4.63;2.40;;;-0.70;99.90;;;;;;5161936;28;20221;-48
2023/03/12 04:32:44;;;;;;;4.27;3.30;;;-0.70;99.90;;;;;;5159051;28;20295;-48
2023/03/12 04:35:15;;;;;;;4.23;2.63;;;-0.80;99.90;;;;;;5158590;28;20989;-48
2023/03/12 04:37:46;;;;;;;5.47;2.43;;;-0.80;99.90;;;;;;5159908;28;20531;-48
2023/03/12 04:40:18;;;;;;;8.43;2.77;;;-0.80;99.90;;;;;;5161895;28;20444;-47
2023/03/12 04:42:52;;;;;;;2.63;2.23;;;-0.70;99.90;;;;;;5158590;28;20522;-48
2023/03/12 04:45:23;;;;;;;4.27;2.70;;;-0.80;99.90;;;;;;5161903;28;20432;-50
2023/03/12 04:47:54;;;;;;;6.00;2.57;;;-0.70;99.90;;;;;;5160543;28;20843;-48
2023/03/12 04:50:25;;;;;;;3.10;2.87;;;-0.80;99.90;;;;;;5159818;28;20212;-47
2023/03/12 04:52:56;;;;;;;4.23;3.73;;;-0.70;99.90;;;;;;5143383;28;20451;-47
2023/03/12 04:55:26;;;;;;;6.00;3.30;;;-0.90;99.90;;;;;;5162510;28;20587;-49
2023/03/12 04:58:00;;;;;;;6.47;3.70;;;-0.80;99.90;;;;;;5160163;28;20956;-48
2023/03/12 05:00:31;;;;;;;7.80;3.70;;;-0.80;99.90;;;;;;5163265;28;20198;-48
2023/03/12 05:03:02;;;;;;;5.50;3.83;;;-0.80;99.90;;;;;;5160084;28;20439;-49
2023/03/12 05:05:34;;;;;;;7.30;3.87;;;-1.00;99.90;;;;;;5159691;28;20447;-49
2023/03/12 05:08:12;;;;;;;6.27;3.50;;;-0.90;99.90;;;;;;5162317;28;20436;-48
2023/03/12 05:10:44;;;;;;;6.97;4.37;;;-0.90;99.90;;;;;;5160281;28;20449;-49
2023/03/12 05:13:17;;;;;;;9.60;5.63;;;-0.90;99.90;;;;;;5162306;28;20421;-50
2023/03/12 05:15:49;;;;;;;4.77;3.90;;;-0.90;99.90;;;;;;5162084;28;20424;-48
2023/03/12 05:18:20;;;;;;;6.27;5.13;;;-1.00;99.90;;;;;;5159886;28;20452;-49
2023/03/12 05:21:01;;;;;;;10.90;4.60;;;-1.00;99.90;;;;;;5160368;28;20546;-49
2023/03/12 05:23:33;;;;;;;6.57;4.40;;;-1.00;99.90;;;;;;5165082;28;20181;-47
2023/03/12 05:26:05;;;;;;;5.90;4.40;;;-0.90;99.90;;;;;;5161461;28;20441;-50
2023/03/12 05:28:36;;;;;;;5.30;4.80;;;-0.90;99.90;;;;;;5145990;28;20471;-47
2023/03/12 05:31:10;;;;;;;6.13;3.50;;;-0.90;99.90;;;;;;5160952;28;20456;-49
2023/03/12 05:33:40;;;;;;;4.30;3.97;;;-0.80;99.90;;;;;;5163873;28;20188;-48
2023/03/12 05:36:13;;;;;;;10.23;3.57;;;-0.80;99.90;;;;;;5162929;28;20435;-49
2023/03/12 05:38:44;;;;;;;5.70;3.90;;;-0.80;99.90;;;;;;5165083;28;20439;-48
2023/03/12 05:41:26;;;;;;;3.67;3.40;;;-0.80;99.90;;;;;;5164699;28;20478;-49
2023/03/12 05:43:57;;;;;;;6.13;4.00;;;-0.80;99.90;;;;;;5160284;28;20455;-47
2023/03/12 05:46:28;;;;;;;5.10;3.67;;;-0.80;99.90;;;;;;5163975;28;20468;-50
2023/03/12 05:48:59;;;;;;;9.60;4.47;;;-0.70;99.90;;;;;;5165537;28;20491;-48
2023/03/12 05:51:30;;;;;;;3.97;3.67;;;-0.60;99.90;;;;;;5164068;28;20201;-49
2023/03/12 05:54:01;;;;;;;6.10;3.50;;;-0.70;99.90;;;;;;5165415;28;20173;-49
2023/03/12 05:56:34;;;;;;;6.80;3.20;;;-0.60;99.90;;;;;;5168048;28;20441;-49
2023/03/12 05:59:05;;;;;;;3.60;3.20;;;-0.50;99.90;;;;;;5166741;28;20437;-49
2023/03/12 06:01:36;;;;;;;3.43;3.23;;;-0.40;99.90;;;;;;5165677;28;20468;-49
2023/03/12 06:04:08;;;;;;;3.40;3.10;;;0.00;99.90;;;;;;5164912;28;20436;-48
2023/03/12 06:06:38;;;;;;;8.30;3.20;;;0.40;99.90;;;;;;5163791;28;20661;-49
2023/03/12 06:09:09;;;;;;;9.10;3.43;;;0.70;99.90;;;;;;5165197;28;20507;-50
2023/03/12 06:11:40;;;;;;;3.63;3.07;;;1.00;99.90;;;;;;5163241;28;20224;-49
2023/03/12 06:14:11;;;;;;;14.53;3.50;;;1.20;99.90;;;;;;5168160;28;20193;-48
2023/03/12 06:16:42;;;;;;;3.43;3.13;;;1.50;99.90;;;;;;5168302;28;20182;-49
2023/03/12 06:19:16;;;;;;;4.53;3.00;;;1.50;99.90;;;;;;5167737;28;20454;-47
2023/03/12 06:21:47;;;;;;;4.30;2.80;;;1.40;99.90;;;;;;5165016;28;20470;-47
2023/03/12 06:24:19;;;;;;;7.30;3.00;;;1.40;99.90;;;;;;5165815;28;20436;-50
2023/03/12 06:26:50;;;;;;;5.50;2.53;;;1.40;99.90;;;;;;5164717;28;20538;-48
2023/03/12 06:29:21;;;;;;;2.83;2.57;;;1.80;99.90;;;;;;5163533;28;20479;-47
2023/03/12 06:31:51;;;;;;;6.27;2.73;;;2.50;99.90;;;;;;5180738;28;20204;-48
2023/03/12 06:34:23;;;;;;;3.07;2.17;;;3.50;99.90;;;;;;5167022;28;20431;-50
2023/03/12 06:36:54;;;;;;;6.83;3.07;;;5.10;99.90;;;;;;5166123;28;20181;-49
2023/03/12 06:39:25;;;;;;;2.27;2.17;;;7.10;99.90;;;;;;5165816;28;20966;-49
2023/03/12 06:41:56;;;;;;;3.73;2.17;;;9.10;92.20;;;;;;5162705;28;20682;-49
2023/03/12 06:44:27;;;;;;;7.23;2.67;;;9.90;74.00;;;;;;5163793;28;20278;-50
2023/03/12 06:46:57;;;;;;;2.80;2.50;;;10.00;67.60;;;;;;5155672;28;20190;-50
2023/03/12 06:49:32;;;;;;;6.00;2.73;;;11.00;64.50;;;;;;5163830;28;20230;-49
2023/03/12 06:52:03;;;;;;;6.67;2.67;;;12.40;57.50;;;;;;5160105;28;20209;-49
2023/03/12 06:54:34;;;;;;;4.83;2.00;;;13.60;51.60;;;;;;5165609;28;20432;-49
2023/03/12 06:57:05;;;;;;;3.07;2.50;;;14.20;48.60;;;;;;5163713;28;20439;-50
2023/03/12 06:59:36;;;;;;;2.97;2.17;;;15.10;46.20;;;;;;5161199;28;20189;-49
2023/03/12 07:02:10;;;;;;;6.03;2.90;;;15.60;43.90;;;;;;5162271;28;20604;-49
2023/03/12 07:04:41;;;;;;;1.93;1.80;;;16.30;42.10;;;;;;5162053;28;20447;-50
2023/03/12 07:07:11;;;;;;;6.63;2.60;;;16.70;40.70;;;;;;5162147;28;20428;-49
2023/03/12 07:09:42;;;;;;;2.63;2.30;;;17.20;39.00;;;;;;5173944;28;20209;-51
2023/03/12 07:12:13;;;;;;;2.53;2.33;;;17.00;39.00;;;;;;5159672;28;20251;-51
2023/03/12 07:14:44;;;;;;;2.00;1.90;;;16.80;38.70;;;;;;5163678;28;20177;-50
2023/03/12 07:17:15;;;;;;;1.87;1.77;;;17.20;38.20;;;;;;5163847;28;20436;-50
2023/03/12 07:19:46;;;;;;;3.60;2.57;;;17.10;37.20;;;;;;5165088;28;20490;-50
2023/03/12 07:22:17;;;;;;;2.00;1.90;;;16.60;37.80;;;;;;5165092;28;20216;-49
2023/03/12 07:24:48;;;;;;;4.83;2.53;;;16.00;38.20;;;;;;5165077;28;20593;-51
2023/03/12 07:27:19;;;;;;;8.10;2.10;;;14.80;39.80;;;;;;5163646;28;20267;-49
2023/03/12 07:29:50;;;;;;;3.90;2.23;;;13.70;41.60;;;;;;5165825;28;20495;-51
2023/03/12 07:32:20;;;;;;;1.70;1.60;;;13.00;43.30;;;;;;5164594;28;20212;-50
2023/03/12 07:34:51;;;;;;;2.13;1.93;;;12.60;44.40;;;;;;5166017;28;20435;-50
2023/03/12 07:37:22;;;;;;;3.80;2.00;;;12.20;44.90;;;;;;5165168;28;20740;-50
2023/03/12 07:39:53;;;;;;;2.60;2.10;;;11.80;45.40;;;;;;5159597;28;20189;-49
2023/03/12 07:42:24;;;;;;;4.47;2.30;;;11.40;46.00;;;;;;5156843;28;20293;-50
2023/03/12 07:44:55;;;;;;;6.10;2.63;;;11.50;46.70;;;;;;5162038;28;20801;-50
2023/03/12 07:47:26;;;;;;;2.90;2.40;;;12.30;46.80;;;;;;5161689;28;20450;-50
2023/03/12 07:49:57;;;;;;;4.10;2.33;;;13.60;44.40;;;;;;5159215;28;20479;-50
2023/03/12 07:52:28;;;;;;;2.00;1.90;;;15.20;42.00;;;;;;5163538;28;20200;-51
2023/03/12 07:54:59;;;;;;;4.63;2.40;;;16.20;39.70;;;;;;5162089;28;20227;-52
2023/03/12 07:57:30;;;;;;;3.13;2.47;;;17.10;37.80;;;;;;5159762;28;20531;-52
2023/03/12 08:00:01;;;;;;;3.27;1.90;;;17.20;37.40;;;;;;5161601;28;20187;-47
2023/03/12 08:02:33;;;;;;;3.03;2.63;;;16.70;37.40;;;;;;5160162;28;20229;-49
2023/03/12 08:05:07;;;;;;;4.33;2.00;;;14.80;38.30;;;;;;5157894;28;20454;-48
2023/03/12 08:07:38;;;;;;;3.93;1.87;;;12.50;41.90;;;;;;5157807;28;20435;-49
2023/03/12 08:10:10;;;;;;;4.73;2.43;;;10.40;45.50;;;;;;5159874;28;20490;-50
2023/03/12 08:12:41;;;;;;;4.47;2.23;;;8.90;49.70;;;;;;5155824;28;20188;-50
2023/03/12 08:15:12;;;;;;;2.57;2.37;;;7.90;52.40;;;;;;5157067;28;20970;-50
2023/03/12 08:17:43;;;;;;;2.00;1.90;;;7.20;54.80;;;;;;5159142;28;20669;-48
2023/03/12 08:20:14;;;;;;;4.23;2.20;;;6.80;59.20;;;;;;5160603;28;21200;-47
2023/03/12 08:22:45;;;;;;;3.90;2.63;;;6.70;64.90;;;;;;5162029;28;21061;-51
2023/03/12 08:25:17;;;;;;;4.20;2.50;;;6.70;66.90;;;;;;5158182;28;20490;-49
2023/03/12 08:27:48;;;;;;;4.90;2.23;;;6.90;69.40;;;;;;5158271;28;20959;-50
2023/03/12 08:30:19;;;;;;;6.67;3.10;;;7.20;72.40;;;;;;5161586;28;20459;-52
2023/03/12 08:32:50;;;;;;;4.10;2.77;;;7.50;70.10;;;;;;5159687;28;20177;-51
2023/03/12 08:35:21;;;;;;;5.87;2.70;;;7.50;66.90;;;;;;5162395;28;20439;-51
2023/03/12 08:37:52;;;;;;;4.67;2.20;;;7.20;69.50;;;;;;5163582;28;20429;-50
2023/03/12 08:40:23;;;;;;;2.30;2.13;;;6.80;71.30;;;;;;5156526;28;20477;-50
2023/03/12 08:42:54;;;;;;;5.90;2.23;;;6.40;80.30;;;;;;5158022;28;20546;-49
2023/03/12 08:45:25;;;;;;;3.23;2.40;;;6.20;87.20;;;;;;5161602;28;20432;-49
2023/03/12 08:47:56;;;;;;;2.57;2.30;;;6.10;88.90;;;;;;5164282;28;20199;-50
2023/03/12 08:50:30;;;;;;;6.20;1.80;;;6.20;85.10;;;;;;5163590;28;20220;-49
2023/03/12 08:53:01;;;;;;;5.17;2.63;;;6.00;86.60;;;;;;5161297;28;20168;-50
2023/03/12 08:55:32;;;;;;;5.20;2.43;;;6.10;88.50;;;;;;5156387;28;20442;-50
2023/03/12 08:58:03;;;;;;;3.07;2.00;;;6.30;91.50;;;;;;5159097;28;20435;-50
2023/03/12 09:00:34;;;;;;;1.47;1.37;;;6.40;90.40;;;;;;5160664;28;20200;-50
2023/03/12 09:03:05;;;;;;;4.00;2.13;;;6.40;87.60;;;;;;5143964;28;20177;-51
2023/03/12 09:05:36;;;;;;;2.53;1.77;;;6.40;88.30;;;;;;5161112;28;20181;-49
2023/03/12 09:08:08;;;;;;;3.27;2.03;;;6.30;88.40;;;;;;5156930;28;20203;-51
2023/03/12 09:10:39;;;;;;;2.00;1.80;;;6.20;82.90;;;;;;5158553;28;20458;-52
2023/03/12 09:13:09;;;;;;;3.37;1.60;;;6.00;86.00;;;;;;5155608;28;20440;-51
2023/03/12 09:15:40;;;;;;;1.37;1.27;;;5.90;88.00;;;;;;5139847;28;20440;-50
2023/03/12 09:18:11;;;;;;;2.97;1.50;;;6.20;90.50;;;;;;5156879;28;20268;-50
2023/03/12 09:20:42;;;;;;;10.57;1.80;;;6.10;86.90;;;;;;5155719;28;20617;-48
2023/03/12 09:23:13;;;;;;;1.67;1.57;;;6.40;85.30;;;;;;5159739;28;20518;-49
2023/03/12 09:25:45;;;;;;;1.87;1.77;;;6.50;83.30;;;;;;5155703;28;20503;-50
2023/03/12 09:28:16;;;;;;;1.70;1.57;;;6.60;83.00;;;;;;5159826;28;20575;-49
2023/03/12 09:30:48;;;;;;;5.57;2.00;;;6.70;81.30;;;;;;5161355;28;20475;-49
2023/03/12 09:33:19;;;;;;;12.00;1.60;;;6.90;78.20;;;;;;5157678;28;20542;-47
2023/03/12 09:35:59;;;;;;;1.10;1.10;;;7.20;76.90;;;;;;5159596;28;20531;-50
2023/03/12 09:38:31;;;;;;;3.70;1.50;;;7.50;72.00;;;;;;5159783;28;20428;-50
2023/03/12 09:41:04;;;;;;;2.20;1.43;;;7.80;71.40;;;;;;5169614;23;21519;-51
2023/03/12 09:43:41;;;;;;;2.63;1.37;;;7.90;71.40;;;;;;5156179;28;20479;-48
2023/03/12 09:46:16;;;;;;;2.40;1.47;;;8.20;69.40;;;;;;5164023;28;20486;-48
2023/03/12 09:48:49;;;;;;;1.60;1.50;;;8.50;66.20;;;;;;5162524;28;20475;-48
2023/03/12 09:51:31;;;;;;;1.47;1.40;;;8.60;66.10;;;;;;5163336;28;20460;-49
2023/03/12 09:54:05;;;;;;;4.50;1.50;;;8.90;62.90;;;;;;5166225;28;21051;-48
2023/03/12 09:56:36;;;;;;;3.80;1.50;;;9.00;58.60;;;;;;5158356;28;20530;-48
2023/03/12 09:59:11;;;;;;;3.77;1.77;;;8.70;59.50;;;;;;5179123;28;20994;-49
2023/03/12 10:01:52;;;;;;;3.93;1.73;;;8.80;59.00;;;;;;5161534;28;20455;-49
2023/03/12 10:05:02;;;;;;;5.13;1.47;;;8.80;58.50;;;;;;5159601;28;20448;-47
2023/03/12 10:07:49;;;;;;;1.73;1.53;;;9.10;58.60;;;;;;5156223;28;20803;-48
2023/03/12 10:10:20;;;;;;;1.63;1.20;;;9.30;59.40;;;;;;5156087;28;20519;-47
2023/03/12 10:13:10;;;;;;;2.83;1.67;;;9.30;58.50;;;;;;5161926;28;20943;-46
2023/03/12 10:15:44;;;;;;;7.33;3.20;;;9.20;56.90;;;;;;5173912;28;20189;-48
2023/03/12 10:18:24;;;;;;;6.20;4.37;;;9.20;58.90;;;;;;5162784;28;20424;-48
2023/03/12 10:21:10;;;;;;;18.77;7.10;;;9.30;58.80;;;;;;5152982;28;20542;-49
2023/03/12 10:24:03;;;;;;;6.37;3.30;;;9.30;58.30;;;;;;5159801;28;20432;-48
2023/03/12 10:26:43;;;;;;;9.97;5.77;;;9.30;57.40;;;;;;5158907;28;20440;-49
2023/03/12 10:29:38;;;;;;;3.20;3.00;;;9.00;59.30;;;;;;5160428;28;20464;-47
2023/03/12 10:32:42;;;;;;;4.00;2.07;;;9.00;58.30;;;;;;5155333;28;20479;-51
2023/03/12 10:35:16;;;;;;;5.03;3.00;;;8.20;58.50;;;;;;5172798;28;20893;-48
2023/03/12 10:37:59;;;;;;;4.00;2.10;;;8.00;61.20;;;;;;5157387;28;20490;-48
2023/03/12 10:40:35;;;;;;;5.33;1.53;;;8.00;61.80;;;;;;5159104;28;20865;-51
2023/03/12 10:43:06;;;;;;;9.43;2.80;;;8.20;61.00;;;;;;5172888;28;20436;-50
2023/03/12 10:45:46;;;;;;;3.97;1.37;;;8.40;61.80;;;;;;5158462;28;20556;-50
2023/03/12 10:48:23;;;;;;;3.23;1.43;;;8.40;58.20;;;;;;5154559;28;20193;-49
2023/03/12 10:51:05;;;;;;;13.30;2.47;;;8.40;59.00;;;;;;5156509;28;20460;-50
2023/03/12 10:53:49;;;;;;;8.17;3.17;;;8.50;60.50;;;;;;5156319;28;20518;-49
2023/03/12 10:56:20;;;;;;;7.97;2.50;;;8.50;60.20;;;;;;5159183;28;20439;-48
2023/03/12 10:58:52;;;;;;;4.37;2.70;;;8.50;59.30;;;;;;5173628;28;20477;-49
2023/03/12 11:01:26;;;;;;;1.57;1.53;;;8.60;59.60;;;;;;5158292;28;20452;-49
2023/03/12 11:04:18;;;;;;;2.90;2.13;;;8.80;59.70;;;;;;5159780;28;20450;-49
2023/03/12 11:07:10;;;;;;;2.37;2.20;;;9.00;57.60;;;;;;5161321;28;20543;-49
2023/03/12 11:09:41;;;;;;;9.93;2.00;;;9.00;55.40;;;;;;5154056;28;20487;-49
2023/03/12 11:12:22;;;;;;;6.37;1.47;;;9.00;55.40;;;;;;5165969;28;20452;-48
2023/03/12 11:14:52;;;;;;;5.83;3.50;;;8.90;55.50;;;;;;5151531;28;20181;-49
2023/03/12 11:17:26;;;;;;;9.37;2.33;;;8.90;56.40;;;;;;5155352;28;20483;-48
2023/03/12 11:19:56;;;;;;;2.13;1.40;;;8.90;55.30;;;;;;5154171;28;20184;-49
2023/03/12 11:22:33;;;;;;;0.97;0.83;;;8.80;53.40;;;;;;5157613;28;20459;-49
2023/03/12 11:25:06;;;;;;;7.50;2.23;;;8.80;53.00;;;;;;5170282;28;20199;-48
2023/03/12 11:27:44;;;;;;;3.23;1.70;;;8.90;52.80;;;;;;5154579;28;20965;-48
2023/03/12 11:30:21;;;;;;;6.80;3.00;;;8.90;53.00;;;;;;5157821;28;20828;-48
2023/03/12 11:32:51;;;;;;;6.93;2.53;;;9.00;53.40;;;;;;5161988;28;20487;-49
2023/03/12 11:36:17;;;;;;;16.83;2.70;;;9.00;53.30;;;;;;5155882;28;20424;-49
2023/03/12 11:39:01;;;;;;;11.27;5.77;;;9.00;54.50;;;;;;5115624;28;20189;-50
2023/03/12 11:41:43;;;;;;;7.00;3.03;;;8.90;55.30;;;;;;5162317;28;20467;-48
2023/03/12 11:44:34;;;;;;;10.77;2.10;;;9.30;55.70;;;;;;5157843;28;20447;-47
2023/03/12 11:47:31;;;;;;;6.13;2.20;;;9.50;53.70;;;;;;5154060;28;20908;-49
2023/03/12 11:50:28;;;;;;;4.00;1.90;;;9.50;53.70;;;;;;5172739;28;20471;-48
2023/03/12 11:53:13;;;;;;;10.13;3.20;;;9.50;51.90;;;;;;5161011;28;20436;-50
2023/03/12 11:56:05;;;;;;;3.30;1.77;;;9.30;50.50;;;;;;5156848;28;20459;-49
2023/03/12 11:58:35;;;;;;;5.87;2.20;;;9.30;51.80;;;;;;5157154;28;20773;-48
2023/03/12 12:01:10;;;;;;;12.23;2.20;;;9.50;52.80;;;;;;5160969;28;20460;-49
2023/03/12 12:03:59;;;;;;;2.33;2.13;;;9.50;51.20;;;;;;5160719;28;20546;-47
2023/03/12 12:06:51;;;;;;;5.73;2.10;;;9.50;50.70;;;;;;5159135;28;20436;-48
2023/03/12 12:10:01;;;;;;;2.20;1.90;;;9.30;48.30;;;;;;5158122;28;20464;-48
2023/03/12 12:12:32;;;;;;;3.57;2.20;;;9.30;48.70;;;;;;5160771;28;20526;-49
2023/03/12 12:15:17;;;;;;;2.30;1.97;;;9.20;47.80;;;;;;5156237;28;20928;-48
2023/03/12 12:18:04;;;;;;;8.50;3.20;;;9.10;48.60;;;;;;5155103;28;20185;-49
2023/03/12 12:20:55;;;;;;;2.73;2.57;;;9.00;48.80;;;;;;5177008;28;20519;-48
2023/03/12 12:23:35;;;;;;;3.60;2.87;;;9.10;48.40;;;;;;5151692;28;20448;-49
2023/03/12 12:26:09;;;;;;;2.03;2.03;;;9.20;48.30;;;;;;5159471;28;20790;-49
2023/03/12 12:28:57;;;;;;;8.70;1.77;;;9.20;48.40;;;;;;5152629;28;20494;-48
2023/03/12 12:31:47;;;;;;;7.60;2.00;;;9.00;45.90;;;;;;5157560;28;20456;-48
2023/03/12 12:34:50;;;;;;;2.27;1.77;;;8.80;46.00;;;;;;5173567;28;20797;-49
2023/03/12 12:37:29;;;;;;;2.67;1.53;;;8.70;47.40;;;;;;5154083;28;20914;-48
2023/03/12 12:40:18;;;;;;;4.37;1.77;;;8.80;46.30;;;;;;5154866;28;20762;-49
2023/03/12 12:43:14;;;;;;;5.90;2.47;;;8.70;44.50;;;;;;5149627;28;20513;-48
2023/03/12 12:45:47;;;;;;;6.60;2.40;;;8.80;42.80;;;;;;5153652;28;20448;-49
2023/03/12 12:48:27;;;;;;;2.90;1.80;;;8.80;43.20;;;;;;5149516;28;20475;-49
2023/03/12 12:50:59;;;;;;;4.73;2.10;;;8.70;43.60;;;;;;5170345;28;20499;-50
2023/03/12 12:53:56;;;;;;;2.20;2.00;;;9.00;43.30;;;;;;5172212;28;20431;-49
2023/03/12 12:56:53;;;;;;;2.03;1.93;;;9.00;41.80;;;;;;5156032;28;20447;-48
2023/03/12 12:59:30;;;;;;;1.70;1.30;;;8.90;39.80;;;;;;5155654;28;20455;-47
2023/03/12 13:02:03;;;;;;;5.63;2.90;;;8.60;40.40;;;;;;5158447;28;20530;-48
2023/03/12 13:04:37;;;;;;;1.93;1.80;;;8.60;41.00;;;;;;5158263;28;20932;-50
2023/03/12 13:07:11;;;;;;;2.80;2.13;;;8.70;40.40;;;;;;5159124;28;20455;-50
2023/03/12 13:09:50;;;;;;;2.53;2.43;;;8.90;39.90;;;;;;5156812;28;20468;-47
2023/03/12 13:12:41;;;;;;;3.13;2.10;;;9.10;40.80;;;;;;5174513;28;20492;-49
2023/03/12 13:15:27;;;;;;;3.40;2.13;;;9.10;40.40;;;;;;5170987;28;20439;-49
2023/03/12 13:17:57;;;;;;;2.90;2.70;;;8.90;41.00;;;;;;5160103;28;20436;-49
2023/03/12 13:20:34;;;;;;;2.47;2.37;;;8.80;41.30;;;;;;5163305;28;20434;-49
2023/03/12 13:23:26;;;;;;;4.47;2.70;;;8.50;42.10;;;;;;5161534;28;20643;-48
2023/03/12 13:26:08;;;;;;;4.57;1.97;;;8.50;42.80;;;;;;5174888;28;20989;-49
2023/03/12 13:28:51;;;;;;;2.10;1.77;;;8.30;43.10;;;;;;5156650;28;20569;-47
2023/03/12 13:31:27;;;;;;;1.93;1.83;;;8.10;43.20;;;;;;5161086;28;20823;-48